Airfield :







YOU CAN JOIN US ON...

 
LOGIN :

Register | Disclaimer

   EN    FR    IT 

 









Legend :    VFR   Marginal VFR   IFR   Intensive IFR   Very Intensive IFR
Visi :
Ceiling :
>= 8 km
>= 3000ft
5 to 8 km
1000 to 3000 ft
1500m to 5 km
500 to 1000 ft
800 to 1500m
200 to 500 ft
< 800m
< 200 ft
Symbols :   Thunderstorms  Fog  Heavy snow  Heavy precipitations  Wind > 20 kt







- Airport Elevation : 92 ft
- IATA code : YZX


CYZX - CFB Greenwood

CURRENT METAR :
  • 210800Z 22005KT 15SM SCT190 21/19 A2963 RMK AC4 SLP035

EXPIRED METARs :
  • 210700Z 25007KT 15SM SKC 21/19 A2965 RMK SLP039
  • 210600Z 24007KT 15SM SKC 22/19 A2966 RMK SLP043

TAF TAF CYZX
Valid from the 21 at 06:00 until the 22 at 06:00 UTC


210530Z 2106/2206 24006KT P6SM FEW250
FM210900 24006KT P6SM SCT050 BKN150
BECMG 2112/2114 30008KT
FM211500 32008KT P6SM BKN040
TEMPO 2115/2119 P6SM -SHRA SCT015 BKN025
FM211900 28008KT P6SM -SHRA SCT012 BKN020
PROB30 2119/2123 3SM TSRA BR OVC012CB
FM212300 26005KT P6SM SCT012 OVC020
BECMG 2200/2202 VRB03KT
FM220400 VRB03KT P6SM OVC010 RMK NXT FCST BY 211200Z
CZQM FIR / North America



MET'MAP, your aeronautical weather chart ! - Copyright ORBIFLY December 2007 - Disclaimer

ORBIFLY MET'MAP TEAM :

Programming & Development : Alexandra Zaïnal
Concept & Development : Baudouin d'Aumeries
Co-Development & Prog : Marc-Olivier Méhu
Technical & hardware support : Manuel Goepfert

Contact : metmap@orbifly.com




SOURCES & CREDITS :

   NOAA